Flight Track Log - Related Links

Times and Time Zones

All times are in EDT time to prevent confusion due to time zone crossing. See the SWA1564 flight status page for this flight to view local times or setup timezone preferences in your user account.

Time Position Orientation Groundspeed Altitude Reporting Facility
EDT Latitude Longitude Course Direction KTS MPH feet Rate Location/Type
Thu 01:35:36 PM 32.7408 -117.2222 84° East 168 193 1,500  Level Los Angeles Center
Thu 01:36:39 PM 32.7561 -117.2931 284° West 227 261 3,500 2,599 Climbing Los Angeles Center
Thu 01:38:43 PM 32.6547 -117.2650 112° Southeast 251 289 9,600 2,855 Climbing Los Angeles Center
Thu 01:40:47 PM 32.6178 -117.0342 100° East 333 383 15,300 2,935 Climbing Los Angeles Center
Thu 01:41:00 PM 32.6161 -116.7891 84° East  Level FlightAware Approximate
Thu 01:41:49 PM 32.6158 -116.9172 91° East 352 405 18,700  Level Los Angeles Center
Thu 01:42:51 PM 32.6289 -116.7908 83° East 380 437 21,400 2,677 Climbing Los Angeles Center
Thu 01:44:55 PM 32.6569 -116.5072 90° East 394 453 27,000 1,080 Climbing Los Angeles Center
Thu 01:48:02 PM 32.6928 -116.1222 85° East 397 457 27,000  Level Los Angeles Center
Thu 01:49:04 PM 32.7078 -115.9669 83° East 397 457 27,000  Level Los Angeles Center
Thu 01:51:08 PM 32.7308 -115.7100 84° East 395 455 27,000  Level Los Angeles Center
Thu 01:53:00 PM 32.7276 -115.5826 85° East  Level FlightAware Approximate
Thu 01:53:12 PM 32.7511 -115.4514 85° East 396 456 27,000  Level Los Angeles Center
Thu 01:54:14 PM 32.7547 -115.2936 88° East 398 458 26,900 -528 Descending Los Angeles Center
Thu 01:55:17 PM 32.7569 -115.1633 89° East 398 458 25,900 -912 Descending Los Angeles Center
Thu 01:56:19 PM 32.7592 -115.0358 89° East 393 452 25,000 -435 Descending Los Angeles Center
Thu 01:57:21 PM 32.7614 -114.9089 89° East 389 448 25,000  Level Los Angeles Center
Thu 01:58:23 PM 32.7636 -114.7817 89° East 388 447 25,000  Level Los Angeles Center
Thu 01:59:25 PM 32.7664 -114.6542 88° East 388 447 25,000  Level Los Angeles Center
Thu 02:01:29 PM 32.7711 -114.3783 89° East 380 437 25,000  Level Los Angeles Center
Thu 02:02:31 PM 32.7717 -114.2542 90° East 379 436 25,000  Level Los Angeles Center
Thu 02:04:36 PM 32.7736 -114.0067 89° East 378 435 25,000  Level Los Angeles Center
Thu 02:05:38 PM 32.7867 -113.8822 83° East 379 436 25,000 -338 Level Los Angeles Center
Thu 02:07:51 PM 32.8758 -113.6097 69° East 383 441 23,900 -755 Descending Albuquerque Center
Thu 02:10:48 PM 33.0236 -113.3214 52° Northeast 365 420 21,100 -968 Descending Los Angeles Center
Thu 02:11:59 PM 33.0861 -113.1983 59° Northeast 361 415 19,900 -992 Descending Albuquerque Center
Thu 02:13:01 PM 33.1381 -113.0983 58° Northeast 358 412 18,900 -1,032 Descending Albuquerque Center
Thu 02:15:05 PM 33.2467 -112.8836 59° Northeast 341 392 16,700 -702 Descending Albuquerque Center
Thu 02:17:09 PM 33.2814 -112.6864 78° East 310 357 16,000 -645 Descending Albuquerque Center
Thu 02:18:11 PM 33.2844 -112.5931 88° East 307 353 14,700 -1,548 Descending Albuquerque Center
Thu 02:19:13 PM 33.2889 -112.4797 87° East 293 337 12,800 -1,645 Descending Albuquerque Center
Thu 02:20:15 PM 33.2914 -112.3858 88° East 287 330 11,300 -919 Descending Albuquerque Center
Thu 02:21:17 PM 33.2964 -112.2914 86° East 287 330 10,900 -774 Descending Albuquerque Center
Thu 02:22:19 PM 33.3033 -112.1964 85° East 287 330 9,700 -1,000 Descending Albuquerque Center
Thu 02:24:23 PM 33.3308 -112.0153 80° East 243 280 7,800 -871 Descending Albuquerque Center
Thu 02:25:25 PM 33.3478 -111.9386 75° East 242 278 7,000 -1,000 Descending Albuquerque Center
Thu 02:27:29 PM 33.3925 -111.8281 64° Northeast 239 275 4,700 -1,032 Descending Albuquerque Center
Thu 02:28:31 PM 33.4225 -111.8775 306° West 192 221 3,800 -1,161 Descending Albuquerque Center
Thu 02:29:33 PM 33.4314 -111.9294 282° West 164 189 2,300 -1,263 Descending Albuquerque Center
Thu 02:30:25 PM 33.4333 -111.9833 272° West 146 168 1,400 -1,038 Descending Phoenix TRACON

Login

Don't have an account? Register now (free) for customized features, flight alerts, and more!